Time;durP1;ratioP1;P1;durP2;ratioP2;P2;SDS_P1;SDS_P2;PMS_P1;PMS_P2;Temp;Humidity;BMP_temperature;BMP_pressure;BME280_temperature;BME280_humidity;BME280_pressure;Samples;Min_cycle;Max_cycle;Signal;HPM_P1;HPM_P2
2021/10/14 00:00:20;;;;;;;1.23;0.87;;;3.50;99.90;1.60;97434.00;;;;5030498;28;20420;-87
2021/10/14 00:03:10;;;;;;;1.10;1.10;;;2.40;99.90;1.50;97435.00;;;;5025668;28;20428;-85
2021/10/14 00:05:59;;;;;;;1.50;1.40;;;3.10;99.90;1.40;97433.00;;;;5025044;28;20459;-87
2021/10/14 00:08:49;;;;;;;1.23;1.13;;;2.30;99.90;1.50;97445.00;;;;5031961;28;20429;-87
2021/10/14 00:11:38;;;;;;;1.10;1.10;;;3.30;99.90;1.40;97439.00;;;;5029746;28;20428;-87
2021/10/14 00:14:27;;;;;;;1.20;1.10;;;2.80;99.90;1.30;97444.00;;;;5029082;28;20448;-86
2021/10/14 00:17:16;;;;;;;1.10;1.00;;;4.60;99.90;1.30;97438.00;;;;5018741;28;20437;-86
2021/10/14 00:20:07;;;;;;;1.57;1.30;;;3.50;99.90;1.30;97439.00;;;;5028326;28;20432;-85
2021/10/14 00:22:57;;;;;;;0.70;0.70;;;2.10;99.90;1.40;97430.00;;;;5028833;28;20443;-87
2021/10/14 00:25:47;;;;;;;5.30;1.17;;;3.90;99.90;1.10;97436.00;;;;5032491;28;20479;-87
2021/10/14 00:28:36;;;;;;;1.60;1.50;;;3.00;99.90;0.90;97438.00;;;;5028246;28;20436;-86
2021/10/14 00:31:24;;;;;;;1.20;1.10;;;3.80;99.90;0.90;97439.00;;;;5026849;28;20948;-87
2021/10/14 00:34:13;;;;;;;1.20;1.00;;;4.30;99.90;1.00;97450.00;;;;5029104;28;20463;-86
2021/10/14 00:37:02;;;;;;;2.47;1.50;;;1.80;99.90;1.00;97445.00;;;;5028279;28;20453;-87
2021/10/14 00:39:51;;;;;;;0.83;0.70;;;1.70;99.90;1.10;97450.00;;;;5026829;28;21020;-87
2021/10/14 00:42:44;;;;;;;0.80;0.80;;;3.00;99.90;1.10;97440.00;;;;5029585;28;20811;-86
2021/10/14 00:45:33;;;;;;;0.90;0.90;;;4.50;99.90;1.10;97445.00;;;;5028300;28;20503;-86
2021/10/14 00:48:22;;;;;;;1.23;0.90;;;2.80;99.90;1.20;97439.00;;;;5030849;28;20447;-86
2021/10/14 00:51:11;;;;;;;0.97;0.90;;;1.80;99.90;1.20;97443.00;;;;5031897;28;20432;-86
2021/10/14 00:54:00;;;;;;;2.00;1.23;;;1.80;99.90;1.10;97440.00;;;;5031321;28;20456;-86
2021/10/14 00:56:49;;;;;;;3.13;0.90;;;2.70;99.90;0.90;97440.00;;;;5032649;28;20428;-86
2021/10/14 00:59:40;;;;;;;2.17;1.73;;;2.90;99.90;0.80;97444.00;;;;5030668;28;20436;-85
2021/10/14 01:02:29;;;;;;;0.83;0.83;;;1.70;99.90;0.80;97446.00;;;;5027827;28;20428;-86
2021/10/14 01:05:18;;;;;;;0.80;0.80;;;1.70;99.90;0.90;97442.00;;;;5032077;28;20472;-86
2021/10/14 01:08:07;;;;;;;1.10;1.10;;;2.60;99.90;0.70;97434.00;;;;5032090;28;20424;-86
2021/10/14 01:10:56;;;;;;;0.90;0.90;;;2.20;99.90;0.40;97434.00;;;;5032966;28;20439;-85
2021/10/14 01:13:44;;;;;;;1.33;1.20;;;1.50;99.90;0.50;97446.00;;;;5032997;28;20452;-86
2021/10/14 01:16:40;;;;;;;1.53;1.27;;;2.50;99.90;0.50;97446.00;;;;5032350;28;20806;-86
2021/10/14 01:19:29;;;;;;;0.90;0.90;;;1.40;99.90;0.40;97442.00;;;;5033127;28;20429;-87
2021/10/14 01:22:19;;;;;;;4.87;1.13;;;2.70;99.90;0.30;97427.00;;;;5031968;28;20425;-86
2021/10/14 01:25:10;;;;;;;1.33;1.20;;;3.40;99.90;0.30;97424.00;;;;5035827;28;20961;-86
2021/10/14 01:27:59;;;;;;;1.07;1.07;;;1.20;99.90;0.20;97426.00;;;;5031925;28;20440;-86
2021/10/14 01:30:48;;;;;;;1.30;1.20;;;2.30;99.90;0.40;97427.00;;;;5032359;28;20424;-85
2021/10/14 01:33:45;;;;;;;0.80;0.80;;;2.80;99.90;0.30;97418.00;;;;5030589;28;20514;-86
2021/10/14 01:36:34;;;;;;;2.00;0.93;;;1.40;99.90;0.30;97429.00;;;;5018236;28;20967;-85
2021/10/14 01:39:24;;;;;;;4.33;1.03;;;1.10;99.90;0.30;97429.00;;;;5032100;28;20421;-86
2021/10/14 01:42:13;;;;;;;0.77;0.77;;;3.20;99.90;0.20;97429.00;;;;5030682;28;20430;-86
2021/10/14 01:45:03;;;;;;;1.00;0.90;;;1.60;99.90;0.10;97422.00;;;;5031332;28;20467;-87
2021/10/14 01:47:52;;;;;;;1.80;1.20;;;2.50;99.90;0.20;97419.00;;;;5032163;28;20456;-87
2021/10/14 01:50:42;;;;;;;1.30;1.30;;;2.30;99.90;0.10;97430.00;;;;5031586;28;20820;-87
2021/10/14 01:53:31;;;;;;;7.60;1.40;;;2.00;99.90;-0.10;97423.00;;;;5031603;28;20953;-85
2021/10/14 01:56:21;;;;;;;1.87;1.50;;;0.90;99.90;-0.30;97422.00;;;;5031370;28;20428;-86
2021/10/14 01:59:10;;;;;;;1.07;0.93;;;2.80;99.90;0.00;97425.00;;;;5017336;28;20823;-86
2021/10/14 02:01:59;;;;;;;1.17;1.13;;;2.40;99.90;0.10;97427.00;;;;5029825;28;20428;-85
2021/10/14 02:04:47;;;;;;;1.10;1.00;;;0.80;99.90;0.20;97421.00;;;;5030674;28;20460;-86
2021/10/14 02:07:36;;;;;;;1.70;0.90;;;2.10;99.90;0.30;97431.00;;;;5031194;28;20468;-86
2021/10/14 02:10:25;;;;;;;1.03;0.93;;;1.90;99.90;0.40;97429.00;;;;5030773;28;20440;-86
2021/10/14 02:13:15;;;;;;;0.90;0.90;;;-1.20;99.90;0.60;97429.00;;;;5031087;28;20965;-85
2021/10/14 02:16:05;;;;;;;0.97;0.97;;;2.80;99.90;0.40;97431.00;;;;5029673;28;20829;-86
2021/10/14 02:18:53;;;;;;;1.10;1.00;;;1.20;99.90;0.30;97429.00;;;;5031017;28;20432;-86
2021/10/14 02:21:42;;;;;;;1.73;1.17;;;1.20;99.90;0.00;97428.00;;;;5031342;28;20432;-86
2021/10/14 02:24:31;;;;;;;1.23;1.10;;;2.20;99.90;0.00;97431.00;;;;5028108;28;20621;-85
2021/10/14 02:27:20;;;;;;;0.97;0.93;;;1.00;99.90;0.00;97419.00;;;;5029408;28;20475;-86
2021/10/14 02:30:13;;;;;;;2.40;1.10;;;2.10;99.90;0.00;97419.00;;;;5029886;28;20455;-86
2021/10/14 02:33:02;;;;;;;1.37;1.27;;;0.90;99.90;-0.40;97399.00;;;;5029719;28;20451;-86
2021/10/14 02:35:51;;;;;;;1.00;0.90;;;2.60;99.90;-0.30;97418.00;;;;5029623;28;20965;-87
2021/10/14 02:38:39;;;;;;;1.95;1.20;;;3.20;99.90;-0.60;97408.00;;;;5029828;28;20395;-86
2021/10/14 02:41:28;;;;;;;1.60;1.17;;;1.30;99.90;-0.60;97407.00;;;;5029131;28;20895;-86
2021/10/14 02:44:17;;;;;;;2.00;1.30;;;0.50;99.90;-0.70;97413.00;;;;5030387;28;20618;-86
2021/10/14 02:47:07;;;;;;;1.07;1.07;;;0.40;99.90;-0.60;97406.00;;;;5030450;28;21048;-86
2021/10/14 02:49:58;;;;;;;1.13;0.97;;;0.40;99.90;-0.70;97412.00;;;;5028592;28;20443;-87
2021/10/14 02:52:47;;;;;;;1.70;0.90;;;0.30;99.90;-0.80;97399.00;;;;5030574;28;20432;-87
2021/10/14 02:55:37;;;;;;;1.27;1.13;;;0.30;99.90;-0.50;97404.00;;;;5029808;28;20433;-87
2021/10/14 02:58:31;;;;;;;0.77;0.77;;;1.10;99.90;-0.40;97405.00;;;;5028063;28;20949;-87
2021/10/14 03:01:19;;;;;;;2.50;0.80;;;1.50;99.90;-0.60;97410.00;;;;5022023;28;20428;-87
2021/10/14 03:04:10;;;;;;;1.10;1.10;;;0.30;99.90;-0.60;97409.00;;;;5029205;28;20475;-87
2021/10/14 03:06:59;;;;;;;0.80;0.80;;;2.80;99.90;-0.60;97411.00;;;;5032573;28;20479;-86
2021/10/14 03:09:48;;;;;;;1.03;1.00;;;1.60;99.90;-0.70;97403.00;;;;5032780;28;20697;-85
2021/10/14 03:12:36;;;;;;;1.27;1.20;;;1.70;99.90;-0.90;97408.00;;;;5031103;28;20428;-86
2021/10/14 03:15:25;;;;;;;1.63;1.30;;;1.70;99.90;-0.60;97406.00;;;;5031146;28;20635;-85
2021/10/14 03:18:14;;;;;;;2.70;1.20;;;0.20;99.90;-0.60;97412.00;;;;5030394;28;20417;-86
2021/10/14 03:21:05;;;;;;;1.63;0.90;;;1.50;99.90;-0.50;97413.00;;;;5029797;28;20428;-86
2021/10/14 03:23:53;;;;;;;1.27;1.10;;;0.10;99.90;-0.70;97417.00;;;;5030367;28;20452;-86
2021/10/14 03:26:47;;;;;;;2.03;1.00;;;1.80;99.90;-0.60;97417.00;;;;5030970;28;21008;-86
2021/10/14 03:29:36;;;;;;;0.70;0.60;;;-0.40;99.90;-0.60;97412.00;;;;5030416;28;20428;-86
2021/10/14 03:32:25;;;;;;;1.20;1.10;;;0.20;99.90;-0.70;97416.00;;;;5031759;28;20436;-86
2021/10/14 03:35:14;;;;;;;1.00;1.00;;;0.20;99.90;-0.50;97430.00;;;;5020410;28;20451;-85
2021/10/14 03:38:04;;;;;;;1.60;1.43;;;-0.90;99.90;-0.50;97425.00;;;;5030161;28;20428;-86
2021/10/14 03:40:53;;;;;;;1.03;1.03;;;2.40;99.90;-0.60;97419.00;;;;5033519;28;20432;-86
2021/10/14 03:43:42;;;;;;;2.50;1.93;;;0.20;99.90;-0.70;97413.00;;;;5036671;28;20804;-86
2021/10/14 03:46:30;;;;;;;1.80;1.70;;;1.80;99.90;-0.90;97422.00;;;;5031054;28;20464;-87
2021/10/14 03:49:19;;;;;;;1.63;1.53;;;0.10;99.90;-0.80;97414.00;;;;5029685;28;20948;-86
2021/10/14 03:52:08;;;;;;;1.40;1.30;;;0.20;99.90;-0.70;97431.00;;;;5030682;28;20432;-87
2021/10/14 03:54:58;;;;;;;2.00;1.47;;;1.30;99.90;-0.80;97417.00;;;;5029038;28;20988;-86
2021/10/14 03:57:47;;;;;;;0.80;0.80;;;1.10;99.90;-0.90;97429.00;;;;5019910;28;20731;-86
2021/10/14 04:00:36;;;;;;;1.33;1.17;;;0.00;99.90;-0.70;97422.00;;;;5030279;28;20433;-87
2021/10/14 04:03:25;;;;;;;1.37;1.20;;;2.70;99.90;-0.70;97422.00;;;;5024698;28;20425;-86
2021/10/14 04:06:14;;;;;;;1.40;1.10;;;0.00;99.90;-1.00;97415.00;;;;5028991;28;20425;-86
2021/10/14 04:09:03;;;;;;;1.27;1.17;;;0.00;99.90;-1.20;97419.00;;;;5026384;28;20428;-86
2021/10/14 04:11:56;;;;;;;1.03;1.03;;;-0.10;99.90;-1.10;97419.00;;;;5028873;28;20852;-87
2021/10/14 04:14:45;;;;;;;1.40;1.30;;;1.80;99.90;-1.10;97418.00;;;;5029859;28;20464;-82
2021/10/14 04:17:34;;;;;;;2.93;1.63;;;-0.20;99.90;-1.10;97432.00;;;;5029835;28;20436;-83
2021/10/14 04:20:23;;;;;;;1.23;1.13;;;-0.20;99.90;-1.20;97421.00;;;;5028855;28;20443;-81
2021/10/14 04:23:12;;;;;;;0.80;0.80;;;-0.20;99.90;-1.00;97425.00;;;;5032483;28;20961;-82
2021/10/14 04:26:01;;;;;;;1.17;1.00;;;-0.20;99.90;-1.00;97413.00;;;;5030330;28;20448;-81
2021/10/14 04:28:51;;;;;;;1.50;1.40;;;-0.20;99.90;-1.00;97425.00;;;;5031899;28;20483;-82
2021/10/14 04:31:40;;;;;;;1.30;1.20;;;-0.20;99.90;-1.00;97419.00;;;;5030775;28;20944;-82
2021/10/14 04:34:30;;;;;;;1.87;0.97;;;-0.20;99.90;-1.00;97417.00;;;;5032171;28;20444;-82
2021/10/14 04:37:19;;;;;;;1.60;1.50;;;-0.20;99.90;-1.30;97418.00;;;;5029465;28;20428;-81
2021/10/14 04:40:10;;;;;;;2.10;1.30;;;-0.30;99.90;-1.10;97414.00;;;;5033240;28;20428;-81
2021/10/14 04:43:01;;;;;;;1.30;1.20;;;-0.30;99.90;-1.30;97414.00;;;;5021917;28;21038;-83
2021/10/14 04:45:51;;;;;;;2.53;1.87;;;-0.40;99.90;-1.20;97403.00;;;;5034034;28;20443;-83
2021/10/14 04:48:40;;;;;;;1.40;1.30;;;-0.40;99.90;-1.40;97418.00;;;;5033203;28;20475;-83
2021/10/14 04:51:28;;;;;;;2.23;2.03;;;-0.40;99.90;-1.40;97420.00;;;;5031503;28;20812;-81
2021/10/14 04:54:17;;;;;;;2.03;1.27;;;-0.40;99.90;-1.40;97424.00;;;;5031922;28;20455;-82
2021/10/14 04:57:06;;;;;;;1.70;1.60;;;-0.50;99.90;-1.20;97428.00;;;;5031610;28;20423;-82
2021/10/14 04:59:55;;;;;;;16.77;7.00;;;-0.50;99.90;-1.40;97430.00;;;;5032331;28;20417;-82
2021/10/14 05:02:45;;;;;;;33.47;14.47;;;2.20;99.90;-1.40;97436.00;;;;5028105;28;20436;-82
2021/10/14 05:05:34;;;;;;;30.00;15.77;;;-0.50;99.90;-1.50;97440.00;;;;5038087;28;20528;-82
2021/10/14 05:08:22;;;;;;;10.33;6.43;;;-0.50;99.90;-1.40;97438.00;;;;5043016;28;20486;-83
2021/10/14 05:11:11;;;;;;;11.20;5.00;;;1.40;99.90;-1.20;97446.00;;;;5035209;28;20440;-83
2021/10/14 05:14:00;;;;;;;12.90;7.07;;;-0.50;99.90;-1.30;97445.00;;;;5033695;28;20458;-83
2021/10/14 05:16:49;;;;;;;7.67;5.80;;;-0.50;99.90;-1.30;97447.00;;;;5035149;28;20439;-82
2021/10/14 05:19:39;;;;;;;5.90;4.33;;;-0.50;99.90;-1.20;97448.00;;;;5034820;28;20447;-81
2021/10/14 05:22:28;;;;;;;3.10;2.60;;;-0.50;99.90;-1.10;97448.00;;;;5031301;28;20436;-82
2021/10/14 05:25:17;;;;;;;5.90;3.73;;;-0.50;99.90;-1.10;97457.00;;;;5042977;28;20468;-82
2021/10/14 05:28:06;;;;;;;7.67;4.73;;;-0.50;99.90;-1.20;97453.00;;;;5035257;28;20472;-82
2021/10/14 05:30:55;;;;;;;2.90;1.70;;;-0.40;99.90;-1.30;97466.00;;;;5033841;28;20432;-82
2021/10/14 05:33:46;;;;;;;2.17;2.03;;;-0.40;99.90;-1.20;97462.00;;;;5030860;28;20457;-83
2021/10/14 05:36:36;;;;;;;4.80;2.73;;;-0.40;99.90;-1.20;97462.00;;;;5033882;28;20420;-80
2021/10/14 05:39:25;;;;;;;3.23;1.33;;;-0.40;99.90;-1.20;97463.00;;;;5049454;28;20444;-81
2021/10/14 05:42:14;;;;;;;1.70;1.60;;;-0.40;99.90;-1.10;97466.00;;;;5052830;28;20432;-81
2021/10/14 05:45:02;;;;;;;2.53;2.00;;;-0.30;99.90;-1.00;97475.00;;;;5053440;28;20443;-81
2021/10/14 05:47:51;;;;;;;1.73;1.63;;;0.20;99.90;-1.20;97485.00;;;;5052961;28;20476;-81
2021/10/14 05:50:40;;;;;;;3.67;2.80;;;-0.30;99.90;-1.10;97484.00;;;;5053015;28;20424;-81
2021/10/14 05:53:30;;;;;;;4.70;2.03;;;-0.30;99.90;-0.80;97486.00;;;;5054044;28;20467;-81
2021/10/14 05:56:19;;;;;;;2.60;1.93;;;0.70;99.90;-0.60;97484.00;;;;5052919;28;20431;-81
2021/10/14 05:59:08;;;;;;;2.07;1.80;;;-0.20;99.90;-1.10;97491.00;;;;5052935;28;20424;-81
2021/10/14 06:01:56;;;;;;;3.23;2.10;;;-0.10;99.90;-0.90;97487.00;;;;5053823;28;20435;-81
2021/10/14 06:04:45;;;;;;;5.70;3.90;;;-0.10;99.90;-0.90;97495.00;;;;5054302;28;20452;-81
2021/10/14 06:07:34;;;;;;;14.07;7.37;;;-0.10;99.90;-0.80;97493.00;;;;5054366;28;20424;-81
2021/10/14 06:10:24;;;;;;;13.67;6.80;;;0.00;99.90;-0.60;97491.00;;;;5052606;28;20439;-80
2021/10/14 06:13:13;;;;;;;13.50;7.73;;;0.10;99.90;-0.20;97505.00;;;;5051550;28;20436;-80
2021/10/14 06:16:02;;;;;;;6.63;3.97;;;0.20;99.90;-0.70;97495.00;;;;5048074;28;20427;-80
2021/10/14 06:18:51;;;;;;;5.57;3.53;;;0.30;99.90;-0.60;97484.00;;;;5053181;28;20443;-82
2021/10/14 06:21:40;;;;;;;3.50;2.40;;;0.20;99.90;-0.40;97502.00;;;;5038523;28;20453;-80
2021/10/14 06:24:29;;;;;;;2.60;2.40;;;0.30;99.90;-0.30;97488.00;;;;5045017;28;20455;-81
2021/10/14 06:27:19;;;;;;;3.57;2.90;;;0.40;99.90;0.00;97501.00;;;;5037662;28;20448;-83
2021/10/14 06:30:10;;;;;;;2.27;1.87;;;0.40;99.90;-0.20;97488.00;;;;5034805;28;20953;-81
2021/10/14 06:32:59;;;;;;;2.30;1.83;;;0.50;99.90;-0.30;97488.00;;;;5030681;28;20440;-83
2021/10/14 06:35:49;;;;;;;2.50;1.63;;;0.60;99.90;-0.30;97494.00;;;;5031325;28;20440;-82
2021/10/14 06:38:38;;;;;;;2.13;1.77;;;0.60;99.90;-0.40;97488.00;;;;5033769;28;20961;-82
2021/10/14 06:41:27;;;;;;;2.23;2.00;;;0.60;99.90;-0.20;97483.00;;;;5028292;28;20428;-82
2021/10/14 06:44:17;;;;;;;1.53;1.40;;;0.60;99.90;0.10;97495.00;;;;5027867;28;20806;-83
2021/10/14 06:47:06;;;;;;;1.50;1.40;;;0.70;99.90;0.20;97488.00;;;;5032205;28;20427;-83
2021/10/14 06:49:55;;;;;;;2.03;1.37;;;0.80;99.90;0.00;97493.00;;;;5031891;28;20460;-83
2021/10/14 06:52:44;;;;;;;1.70;1.60;;;1.80;99.90;0.30;97495.00;;;;5030948;28;20976;-83
2021/10/14 06:55:32;;;;;;;2.93;1.87;;;0.90;99.90;0.60;97491.00;;;;5027876;28;20869;-83
2021/10/14 06:58:21;;;;;;;1.87;1.77;;;1.00;99.90;0.80;97504.00;;;;5021491;28;20432;-83
2021/10/14 07:01:13;;;;;;;2.00;1.53;;;1.10;99.90;0.70;97495.00;;;;5031054;28;20427;-81
2021/10/14 07:04:02;;;;;;;1.43;1.33;;;1.20;99.90;0.70;97495.00;;;;5030144;28;20452;-82
2021/10/14 07:06:52;;;;;;;1.60;1.50;;;1.30;99.90;0.70;97498.00;;;;5031338;28;20961;-81
2021/10/14 07:09:40;;;;;;;1.53;1.33;;;1.40;99.90;0.90;97505.00;;;;5030449;28;20857;-82
2021/10/14 07:12:29;;;;;;;1.97;1.40;;;1.40;99.90;1.30;97510.00;;;;5017619;28;20416;-83
2021/10/14 07:15:18;;;;;;;1.90;1.23;;;1.50;99.90;1.00;97512.00;;;;5022772;28;20459;-82
2021/10/14 07:18:09;;;;;;;2.03;1.70;;;2.50;99.90;0.90;97517.00;;;;5027584;28;20427;-83
2021/10/14 07:20:58;;;;;;;1.13;1.03;;;1.60;99.90;1.00;97505.00;;;;5027282;28;20701;-83
2021/10/14 07:23:47;;;;;;;2.23;1.50;;;1.70;99.90;1.40;97499.00;;;;5029407;28;20779;-83
2021/10/14 07:26:36;;;;;;;1.93;1.53;;;1.90;99.90;1.60;97510.00;;;;5029818;28;20439;-83
2021/10/14 07:29:26;;;;;;;1.57;1.20;;;2.30;99.90;1.60;97516.00;;;;5027320;28;20456;-83
2021/10/14 07:32:14;;;;;;;2.87;1.93;;;2.40;99.90;1.90;97517.00;;;;5027754;28;20443;-82
2021/10/14 07:35:06;;;;;;;1.70;1.60;;;2.40;99.90;2.20;97523.00;;;;5029222;28;20862;-82
2021/10/14 07:37:55;;;;;;;1.40;1.23;;;2.40;99.90;2.20;97523.00;;;;5028699;28;20972;-83
2021/10/14 07:40:44;;;;;;;1.57;1.17;;;3.30;99.90;2.40;97533.00;;;;5029150;28;20458;-82
2021/10/14 07:43:33;;;;;;;1.40;1.10;;;3.50;99.90;2.60;97524.00;;;;5027057;28;20452;-82
2021/10/14 07:46:22;;;;;;;1.70;1.43;;;1.00;99.90;2.60;97535.00;;;;5016873;28;20424;-83
2021/10/14 07:49:12;;;;;;;4.10;2.40;;;2.90;99.90;2.80;97533.00;;;;5029752;28;20468;-82
2021/10/14 07:52:03;;;;;;;4.57;2.13;;;3.70;99.90;3.10;97536.00;;;;5024715;28;20412;-83
2021/10/14 07:54:51;;;;;;;3.00;1.87;;;3.20;99.90;3.50;97547.00;;;;5024752;28;20452;-82
2021/10/14 07:57:40;;;;;;;4.20;2.60;;;3.40;99.90;3.80;97550.00;;;;5033451;28;20421;-82
2021/10/14 08:00:29;;;;;;;4.53;3.53;;;3.60;99.90;3.90;97543.00;;;;5035975;28;20458;-82
2021/10/14 08:03:18;;;;;;;6.03;3.73;;;3.80;99.90;4.10;97557.00;;;;5037399;28;20428;-81
2021/10/14 08:06:07;;;;;;;4.20;2.73;;;4.20;99.90;4.30;97562.00;;;;5035740;28;20420;-82
2021/10/14 08:08:57;;;;;;;3.67;2.40;;;4.40;99.90;4.20;97555.00;;;;5028230;28;20991;-81
2021/10/14 08:11:46;;;;;;;4.10;2.53;;;4.50;99.90;4.30;97554.00;;;;5036595;28;20431;-82
2021/10/14 08:14:35;;;;;;;2.53;2.23;;;4.60;99.90;4.40;97553.00;;;;5030997;28;20823;-81
2021/10/14 08:17:24;;;;;;;3.20;2.53;;;4.60;99.90;4.70;97539.00;;;;5036943;28;20437;-82
2021/10/14 08:20:13;;;;;;;4.43;2.57;;;4.80;99.90;5.10;97550.00;;;;5035701;28;20583;-81
2021/10/14 08:23:02;;;;;;;5.90;3.10;;;5.00;99.90;5.10;97546.00;;;;5037058;28;20700;-80
2021/10/14 08:25:52;;;;;;;3.27;2.73;;;5.20;99.90;5.40;97540.00;;;;5036299;28;20227;-82
2021/10/14 08:28:41;;;;;;;7.17;3.30;;;5.40;99.90;5.40;97534.00;;;;5025812;28;20211;-81
2021/10/14 08:31:30;;;;;;;2.63;2.27;;;5.50;99.90;5.50;97551.00;;;;5031631;28;20219;-81
2021/10/14 08:34:18;;;;;;;5.13;2.60;;;5.70;99.90;5.40;97545.00;;;;5033905;28;20248;-81
2021/10/14 08:37:07;;;;;;;4.50;2.67;;;5.70;99.90;5.70;97537.00;;;;5036802;28;20201;-81
2021/10/14 08:39:56;;;;;;;4.77;2.63;;;5.80;99.90;6.10;97533.00;;;;5034509;28;20204;-81
2021/10/14 08:42:46;;;;;;;6.13;2.73;;;6.00;99.90;6.40;97531.00;;;;5036308;28;20204;-82
2021/10/14 08:45:37;;;;;;;5.20;2.53;;;6.20;99.90;6.90;97533.00;;;;5036732;28;20205;-81
2021/10/14 08:48:26;;;;;;;5.03;3.17;;;6.50;99.90;7.40;97535.00;;;;5036641;28;20200;-82
2021/10/14 08:51:15;;;;;;;2.87;2.40;;;6.80;99.90;7.50;97528.00;;;;5029772;28;20580;-82
2021/10/14 08:54:04;;;;;;;8.00;2.30;;;7.10;99.90;7.80;97532.00;;;;5037187;28;20740;-82
2021/10/14 08:56:53;;;;;;;2.83;2.63;;;7.40;99.90;7.90;97530.00;;;;5035578;28;20220;-82
2021/10/14 08:59:43;;;;;;;3.67;2.47;;;7.60;99.90;8.20;97519.00;;;;5036915;28;20677;-82
2021/10/14 09:02:35;;;;;;;6.60;2.80;;;7.90;99.90;8.80;97523.00;;;;5023357;28;20197;-82
2021/10/14 09:05:24;;;;;;;2.40;2.00;;;8.20;99.90;9.10;97509.00;;;;5033114;28;20237;-84
2021/10/14 09:08:13;;;;;;;5.50;2.37;;;8.50;99.90;9.20;97505.00;;;;5028998;28;20228;-84
2021/10/14 09:11:11;;;;;;;2.53;1.93;;;8.70;99.90;9.50;97517.00;;;;5030285;28;20247;-84
2021/10/14 09:14:03;;;;;;;2.67;1.80;;;9.00;99.90;9.60;97514.00;;;;5021891;28;20505;-84
2021/10/14 09:16:53;;;;;;;3.63;1.80;;;9.20;99.90;9.90;97521.00;;;;5029305;28;20780;-83
2021/10/14 09:19:42;;;;;;;2.43;1.47;;;9.40;99.90;10.00;97516.00;;;;5030679;28;20220;-83
2021/10/14 09:22:30;;;;;;;3.37;1.63;;;9.60;99.90;10.30;97523.00;;;;5029772;28;20189;-83
2021/10/14 09:25:29;;;;;;;2.40;1.47;;;9.70;99.90;10.40;97524.00;;;;5023956;28;20226;-84
2021/10/14 09:28:21;;;;;;;4.27;1.53;;;9.90;99.90;10.10;97528.00;;;;5025246;28;20197;-83
2021/10/14 09:31:10;;;;;;;2.47;1.50;;;10.00;99.90;9.80;97522.00;;;;5025457;28;20229;-83
2021/10/14 09:34:00;;;;;;;2.50;1.10;;;9.80;99.90;9.90;97525.00;;;;5029500;28;20744;-83
2021/10/14 09:36:49;;;;;;;2.33;0.77;;;9.90;99.90;10.30;97533.00;;;;5027343;28;20209;-83
2021/10/14 09:39:56;;;;;;;1.43;0.90;;;9.90;99.90;10.90;97498.00;;;;5030831;28;20208;-84
2021/10/14 09:42:53;;;;;;;1.30;1.20;;;10.20;99.90;11.10;97496.00;;;;5029276;28;20240;-83
2021/10/14 09:45:41;;;;;;;1.37;1.10;;;10.50;99.90;11.60;97492.00;;;;5029939;28;20208;-83
2021/10/14 09:48:31;;;;;;;1.33;1.10;;;10.80;99.90;11.60;97487.00;;;;5031542;28;20201;-84
2021/10/14 09:51:21;;;;;;;2.93;1.60;;;11.10;98.70;11.60;97490.00;;;;5023604;28;20229;-83
2021/10/14 09:54:10;;;;;;;1.80;1.20;;;11.30;95.70;11.70;97477.00;;;;5026118;28;20247;-83
2021/10/14 09:56:59;;;;;;;2.10;1.20;;;11.60;94.60;12.20;97486.00;;;;5029861;28;20210;-83
2021/10/14 09:59:51;;;;;;;2.00;0.73;;;11.70;94.00;12.60;97482.00;;;;5030066;28;20217;-83
2021/10/14 10:02:40;;;;;;;0.83;0.83;;;12.00;95.00;12.10;97474.00;;;;5018807;28;20201;-84
2021/10/14 10:05:30;;;;;;;1.87;0.70;;;12.10;90.30;12.60;97477.00;;;;5030491;28;20719;-83
2021/10/14 10:08:30;;;;;;;0.90;0.65;;;12.30;90.60;13.30;97500.00;;;;5022974;28;20216;-83
2021/10/14 10:11:21;;;;;;;2.30;0.90;;;12.60;91.50;13.40;97476.00;;;;5025639;28;20232;-84
2021/10/14 10:14:11;;;;;;;0.63;0.50;;;12.80;91.50;13.60;97483.00;;;;5022208;28;20213;-84
2021/10/14 10:17:06;;;;;;;1.90;0.73;;;13.00;90.80;13.90;97498.00;;;;5022528;28;20550;-84
2021/10/14 10:19:55;;;;;;;1.87;0.80;;;13.20;90.80;14.40;97498.00;;;;5030638;28;20209;-84
2021/10/14 10:22:53;;;;;;;0.80;0.80;;;13.50;87.50;13.70;97480.00;;;;5030747;28;20213;-84
2021/10/14 10:25:43;;;;;;;0.90;0.70;;;13.60;84.90;12.30;97477.00;;;;5032427;28;20205;-84
2021/10/14 10:28:42;;;;;;;2.17;1.23;;;13.30;81.10;11.80;97470.00;;;;5020350;28;20209;-86
2021/10/14 10:32:14;;;;;;;0.70;0.70;;;13.00;80.30;12.10;97463.00;;;;5032807;28;20213;-88
2021/10/14 10:35:07;;;;;;;1.57;0.80;;;12.70;79.60;12.10;97477.00;;;;5033726;28;20240;-87
2021/10/14 10:38:18;;;;;;;0.77;0.70;;;12.50;79.40;12.20;97459.00;;;;5031592;28;20663;-86
2021/10/14 10:44:01;;;;;;;2.27;0.77;;;12.40;79.00;12.40;97465.00;;;;5026423;22;20727;-74
2021/10/14 10:46:50;;;;;;;0.80;0.70;;;12.50;79.00;12.50;97470.00;;;;5002570;28;20676;-74
2021/10/14 10:49:55;;;;;;;2.30;1.13;;;12.50;78.90;12.90;97472.00;;;;5019970;28;20193;-74
2021/10/14 10:52:45;;;;;;;5.90;1.53;;;12.50;80.70;13.20;97469.00;;;;4979012;28;20213;-73
2021/10/14 10:55:40;;;;;;;1.57;0.97;;;12.60;83.50;13.40;97472.00;;;;4975963;28;20206;-73
2021/10/14 10:58:49;;;;;;;0.53;0.53;;;12.80;84.80;13.50;97468.00;;;;4976860;28;20199;-72
2021/10/14 11:01:39;;;;;;;2.63;1.03;;;13.00;83.30;13.80;97469.00;;;;4984542;28;20293;-73
2021/10/14 11:04:29;;;;;;;0.50;0.50;;;13.20;82.50;14.10;97458.00;;;;4984931;28;20302;-72
2021/10/14 11:07:18;;;;;;;1.07;0.90;;;13.40;82.40;14.60;97455.00;;;;4982755;28;20209;-73
2021/10/14 11:10:08;;;;;;;0.53;0.50;;;13.60;82.90;14.60;97457.00;;;;4985337;28;20226;-73
2021/10/14 11:13:00;;;;;;;1.27;0.73;;;13.90;80.30;14.90;97442.00;;;;4969287;28;20210;-74
2021/10/14 11:16:00;;;;;;;0.87;0.60;;;14.20;79.70;14.90;97441.00;;;;4979528;28;20575;-73
2021/10/14 11:18:52;;;;;;;0.53;0.50;;;14.40;77.80;14.60;97440.00;;;;4978425;28;20203;-72
2021/10/14 11:21:54;;;;;;;0.60;0.60;;;14.40;74.60;15.50;97457.00;;;;4984907;28;20219;-75
2021/10/14 11:24:43;;;;;;;1.23;0.90;;;14.70;75.80;15.40;97460.00;;;;4977949;28;20203;-74
2021/10/14 11:27:35;;;;;;;0.73;0.70;;;14.80;76.40;14.90;97449.00;;;;4986605;28;20273;-75
2021/10/14 11:30:25;;;;;;;0.50;0.50;;;14.90;74.00;14.80;97448.00;;;;4991523;28;20225;-70
2021/10/14 11:33:35;;;;;;;0.80;0.50;;;14.80;73.30;14.60;97450.00;;;;4978803;28;20281;-70
2021/10/14 11:36:25;;;;;;;1.73;1.00;;;14.70;73.40;14.50;97462.00;;;;4971162;28;20211;-70
2021/10/14 11:39:15;;;;;;;1.13;0.60;;;14.60;73.10;14.30;97439.00;;;;4990019;28;20202;-70
2021/10/14 11:42:08;;;;;;;0.77;0.60;;;14.40;72.50;14.30;97444.00;;;;4986061;28;20218;-70
2021/10/14 11:44:59;;;;;;;0.70;0.70;;;14.30;72.90;14.20;97439.00;;;;4993491;28;20217;-70
2021/10/14 11:47:47;;;;;;;0.50;0.43;;;14.20;71.70;14.50;97440.00;;;;4986569;28;20202;-70
2021/10/14 11:50:36;;;;;;;0.40;0.40;;;14.10;73.00;14.40;97439.00;;;;4987075;28;20257;-69
2021/10/14 11:53:26;;;;;;;0.60;0.53;;;14.20;73.80;14.20;97436.00;;;;4986803;28;20202;-70
2021/10/14 11:56:15;;;;;;;0.80;0.40;;;14.20;72.90;14.10;97442.00;;;;4986731;28;20203;-69
2021/10/14 11:59:05;;;;;;;1.67;0.50;;;14.10;73.30;14.00;97451.00;;;;4974665;28;20202;-70
2021/10/14 12:02:00;;;;;;;1.17;0.50;;;14.00;74.00;13.90;97444.00;;;;4986904;28;20230;-70
2021/10/14 12:04:53;;;;;;;1.63;0.70;;;13.90;73.80;13.40;97438.00;;;;4975037;28;20603;-69
2021/10/14 12:07:44;;;;;;;0.70;0.50;;;13.70;73.50;13.50;97442.00;;;;4982622;28;20210;-70
2021/10/14 12:10:40;;;;;;;0.50;0.50;;;13.50;74.10;13.60;97440.00;;;;4973298;28;20293;-69
2021/10/14 12:13:31;;;;;;;2.00;0.40;;;13.50;74.90;13.30;97440.00;;;;4991925;28;20245;-70
2021/10/14 12:16:20;;;;;;;2.37;0.63;;;13.40;74.90;13.40;97433.00;;;;4984013;28;20198;-69
2021/10/14 12:19:14;;;;;;;1.87;0.50;;;13.40;74.90;13.50;97428.00;;;;4986908;28;20214;-69
2021/10/14 12:22:13;;;;;;;0.40;0.40;;;13.30;74.30;13.90;97424.00;;;;4982008;28;20229;-70
2021/10/14 12:25:05;;;;;;;0.30;0.30;;;13.40;74.80;14.20;97418.00;;;;4971167;28;20669;-70
2021/10/14 12:27:58;;;;;;;0.93;0.57;;;13.60;75.50;14.60;97426.00;;;;4985278;28;20730;-69
2021/10/14 12:30:47;;;;;;;1.00;0.60;;;13.80;76.00;14.60;97418.00;;;;4979494;28;20238;-69
2021/10/14 12:33:38;;;;;;;0.97;0.60;;;14.00;75.70;14.30;97424.00;;;;4977381;28;20715;-69
2021/10/14 12:36:43;;;;;;;2.23;0.43;;;14.10;74.60;14.20;97426.00;;;;4984112;28;20384;-69
2021/10/14 12:39:32;;;;;;;1.23;0.50;;;14.10;71.90;14.00;97432.00;;;;4980315;28;20206;-69
2021/10/14 12:42:45;;;;;;;0.40;0.30;;;14.00;72.00;13.80;97433.00;;;;4991731;28;20240;-69
2021/10/14 12:45:52;;;;;;;0.30;0.23;;;13.90;73.50;13.60;97434.00;;;;4993871;28;20561;-69
2021/10/14 12:48:49;;;;;;;1.53;0.60;;;13.70;73.50;13.60;97440.00;;;;4980865;28;20261;-69